sensor_id;sensor_type;location;lat;lon;timestamp;temperature;humidity
42841;DHT22;28491;46.898;7.660;2023-08-31T00:00:29;14.00;1.00
42841;DHT22;28491;46.898;7.660;2023-08-31T00:02:57;13.90;1.00
42841;DHT22;28491;46.898;7.660;2023-08-31T00:05:22;13.80;1.00
42841;DHT22;28491;46.898;7.660;2023-08-31T00:07:50;13.90;1.00
42841;DHT22;28491;46.898;7.660;2023-08-31T00:10:16;13.90;1.00
42841;DHT22;28491;46.898;7.660;2023-08-31T00:12:42;13.80;1.00
42841;DHT22;28491;46.898;7.660;2023-08-31T00:15:09;13.90;1.00
42841;DHT22;28491;46.898;7.660;2023-08-31T00:17:34;13.80;1.00
42841;DHT22;28491;46.898;7.660;2023-08-31T00:20:00;13.80;1.00
42841;DHT22;28491;46.898;7.660;2023-08-31T00:22:26;13.90;1.00
42841;DHT22;28491;46.898;7.660;2023-08-31T00:24:51;13.80;1.00
42841;DHT22;28491;46.898;7.660;2023-08-31T00:27:18;13.70;1.00
42841;DHT22;28491;46.898;7.660;2023-08-31T00:29:43;13.70;1.00
42841;DHT22;28491;46.898;7.660;2023-08-31T00:32:15;13.70;1.00
42841;DHT22;28491;46.898;7.660;2023-08-31T00:34:40;13.70;1.00
42841;DHT22;28491;46.898;7.660;2023-08-31T00:37:06;13.70;1.00
42841;DHT22;28491;46.898;7.660;2023-08-31T00:39:31;13.70;1.00
42841;DHT22;28491;46.898;7.660;2023-08-31T00:41:59;13.70;1.00
42841;DHT22;28491;46.898;7.660;2023-08-31T00:44:24;13.70;1.00
42841;DHT22;28491;46.898;7.660;2023-08-31T00:46:50;13.80;1.00
42841;DHT22;28491;46.898;7.660;2023-08-31T00:49:15;13.80;1.00
42841;DHT22;28491;46.898;7.660;2023-08-31T00:51:43;13.80;1.00
42841;DHT22;28491;46.898;7.660;2023-08-31T00:54:14;13.70;1.00
42841;DHT22;28491;46.898;7.660;2023-08-31T00:56:40;13.70;1.00
42841;DHT22;28491;46.898;7.660;2023-08-31T00:59:06;13.70;1.00
42841;DHT22;28491;46.898;7.660;2023-08-31T01:04:33;13.50;1.00
42841;DHT22;28491;46.898;7.660;2023-08-31T01:07:14;13.50;1.00
42841;DHT22;28491;46.898;7.660;2023-08-31T01:09:57;13.60;1.00
42841;DHT22;28491;46.898;7.660;2023-08-31T01:12:37;13.70;1.00
42841;DHT22;28491;46.898;7.660;2023-08-31T01:15:10;13.70;1.00
42841;DHT22;28491;46.898;7.660;2023-08-31T01:17:52;13.80;1.00
42841;DHT22;28491;46.898;7.660;2023-08-31T01:20:31;13.70;1.00
42841;DHT22;28491;46.898;7.660;2023-08-31T01:23:11;13.60;1.00
42841;DHT22;28491;46.898;7.660;2023-08-31T01:25:38;13.60;1.00
42841;DHT22;28491;46.898;7.660;2023-08-31T01:28:06;13.60;1.00
42841;DHT22;28491;46.898;7.660;2023-08-31T01:30:33;13.60;1.00
42841;DHT22;28491;46.898;7.660;2023-08-31T01:32:58;13.60;1.00
42841;DHT22;28491;46.898;7.660;2023-08-31T01:35:24;13.50;1.00
42841;DHT22;28491;46.898;7.660;2023-08-31T01:37:58;13.60;1.00
42841;DHT22;28491;46.898;7.660;2023-08-31T01:41:03;13.70;1.00
42841;DHT22;28491;46.898;7.660;2023-08-31T01:43:31;13.60;1.00
42841;DHT22;28491;46.898;7.660;2023-08-31T01:45:58;13.70;1.00
42841;DHT22;28491;46.898;7.660;2023-08-31T01:48:24;13.50;1.00
42841;DHT22;28491;46.898;7.660;2023-08-31T01:50:49;13.40;1.00
42841;DHT22;28491;46.898;7.660;2023-08-31T01:53:15;13.60;1.00
42841;DHT22;28491;46.898;7.660;2023-08-31T01:55:40;13.60;1.00
42841;DHT22;28491;46.898;7.660;2023-08-31T01:58:06;13.70;1.00
42841;DHT22;28491;46.898;7.660;2023-08-31T02:00:32;13.60;1.00
42841;DHT22;28491;46.898;7.660;2023-08-31T02:03:03;13.50;1.00
42841;DHT22;28491;46.898;7.660;2023-08-31T02:05:29;13.50;1.00
42841;DHT22;28491;46.898;7.660;2023-08-31T02:07:54;13.50;1.00
42841;DHT22;28491;46.898;7.660;2023-08-31T02:10:20;13.60;1.00
42841;DHT22;28491;46.898;7.660;2023-08-31T02:12:45;13.50;1.00
42841;DHT22;28491;46.898;7.660;2023-08-31T02:15:11;13.50;1.00
42841;DHT22;28491;46.898;7.660;2023-08-31T02:17:37;13.50;1.00
42841;DHT22;28491;46.898;7.660;2023-08-31T02:20:03;13.50;1.00
42841;DHT22;28491;46.898;7.660;2023-08-31T02:22:34;13.60;1.00
42841;DHT22;28491;46.898;7.660;2023-08-31T02:25:00;13.50;1.00
42841;DHT22;28491;46.898;7.660;2023-08-31T02:27:28;13.50;1.00
42841;DHT22;28491;46.898;7.660;2023-08-31T02:29:54;13.50;1.00
42841;DHT22;28491;46.898;7.660;2023-08-31T02:32:20;13.50;1.00
42841;DHT22;28491;46.898;7.660;2023-08-31T02:34:46;13.60;1.00
42841;DHT22;28491;46.898;7.660;2023-08-31T02:37:11;13.60;1.00
42841;DHT22;28491;46.898;7.660;2023-08-31T02:39:37;13.40;1.00
42841;DHT22;28491;46.898;7.660;2023-08-31T02:42:02;13.50;1.00
42841;DHT22;28491;46.898;7.660;2023-08-31T02:44:28;13.60;1.00
42841;DHT22;28491;46.898;7.660;2023-08-31T02:46:53;13.50;1.00
42841;DHT22;28491;46.898;7.660;2023-08-31T02:49:19;13.50;1.00
42841;DHT22;28491;46.898;7.660;2023-08-31T02:51:44;13.50;1.00
42841;DHT22;28491;46.898;7.660;2023-08-31T02:54:10;13.50;1.00
42841;DHT22;28491;46.898;7.660;2023-08-31T02:56:35;13.50;1.00
42841;DHT22;28491;46.898;7.660;2023-08-31T02:59:01;13.40;1.00
42841;DHT22;28491;46.898;7.660;2023-08-31T03:01:26;13.30;1.00
42841;DHT22;28491;46.898;7.660;2023-08-31T03:03:52;13.30;1.00
42841;DHT22;28491;46.898;7.660;2023-08-31T03:06:17;13.30;1.00
42841;DHT22;28491;46.898;7.660;2023-08-31T03:08:43;13.30;1.00
42841;DHT22;28491;46.898;7.660;2023-08-31T03:11:09;13.30;1.00
42841;DHT22;28491;46.898;7.660;2023-08-31T03:13:34;13.20;1.00
42841;DHT22;28491;46.898;7.660;2023-08-31T03:16:00;13.30;1.00
42841;DHT22;28491;46.898;7.660;2023-08-31T03:18:26;13.30;1.00
42841;DHT22;28491;46.898;7.660;2023-08-31T03:20:54;13.30;1.00
42841;DHT22;28491;46.898;7.660;2023-08-31T03:23:19;13.30;1.00
42841;DHT22;28491;46.898;7.660;2023-08-31T03:25:45;13.40;1.00
42841;DHT22;28491;46.898;7.660;2023-08-31T03:28:10;13.40;1.00
42841;DHT22;28491;46.898;7.660;2023-08-31T03:30:36;13.40;1.00
42841;DHT22;28491;46.898;7.660;2023-08-31T03:33:01;13.30;1.00
42841;DHT22;28491;46.898;7.660;2023-08-31T03:35:27;13.40;1.00
42841;DHT22;28491;46.898;7.660;2023-08-31T03:37:54;13.50;1.00
42841;DHT22;28491;46.898;7.660;2023-08-31T03:40:20;13.40;1.00
42841;DHT22;28491;46.898;7.660;2023-08-31T03:42:46;13.40;1.00
42841;DHT22;28491;46.898;7.660;2023-08-31T03:45:12;13.30;1.00
42841;DHT22;28491;46.898;7.660;2023-08-31T03:47:38;13.30;1.00
42841;DHT22;28491;46.898;7.660;2023-08-31T03:50:04;13.30;1.00
42841;DHT22;28491;46.898;7.660;2023-08-31T03:52:30;13.20;1.00
42841;DHT22;28491;46.898;7.660;2023-08-31T03:54:55;13.00;1.00
42841;DHT22;28491;46.898;7.660;2023-08-31T03:57:21;13.20;1.00
42841;DHT22;28491;46.898;7.660;2023-08-31T03:59:47;13.20;1.00
42841;DHT22;28491;46.898;7.660;2023-08-31T04:02:12;13.10;1.00
42841;DHT22;28491;46.898;7.660;2023-08-31T04:04:38;13.10;1.00
42841;DHT22;28491;46.898;7.660;2023-08-31T04:07:04;13.10;1.00
42841;DHT22;28491;46.898;7.660;2023-08-31T04:09:36;13.10;1.00
42841;DHT22;28491;46.898;7.660;2023-08-31T04:12:05;13.20;1.00
42841;DHT22;28491;46.898;7.660;2023-08-31T04:14:31;13.20;1.00
42841;DHT22;28491;46.898;7.660;2023-08-31T04:16:57;13.20;1.00
42841;DHT22;28491;46.898;7.660;2023-08-31T04:19:22;13.20;1.00
42841;DHT22;28491;46.898;7.660;2023-08-31T04:21:48;13.20;1.00
42841;DHT22;28491;46.898;7.660;2023-08-31T04:24:14;13.30;1.00
42841;DHT22;28491;46.898;7.660;2023-08-31T04:26:39;13.20;1.00
42841;DHT22;28491;46.898;7.660;2023-08-31T04:29:05;13.30;1.00
42841;DHT22;28491;46.898;7.660;2023-08-31T04:31:33;13.30;1.00
42841;DHT22;28491;46.898;7.660;2023-08-31T04:33:59;13.30;1.00
42841;DHT22;28491;46.898;7.660;2023-08-31T04:36:25;13.20;1.00
42841;DHT22;28491;46.898;7.660;2023-08-31T04:38:53;13.30;1.00
42841;DHT22;28491;46.898;7.660;2023-08-31T04:41:18;13.30;1.00
42841;DHT22;28491;46.898;7.660;2023-08-31T04:43:44;13.30;1.00
42841;DHT22;28491;46.898;7.660;2023-08-31T04:46:13;13.30;1.00
42841;DHT22;28491;46.898;7.660;2023-08-31T04:48:38;13.40;1.00
42841;DHT22;28491;46.898;7.660;2023-08-31T04:51:05;13.40;1.00
42841;DHT22;28491;46.898;7.660;2023-08-31T04:53:30;13.40;1.00
42841;DHT22;28491;46.898;7.660;2023-08-31T04:55:56;13.40;1.00
42841;DHT22;28491;46.898;7.660;2023-08-31T04:58:21;13.40;1.00
42841;DHT22;28491;46.898;7.660;2023-08-31T05:00:47;13.30;1.00
42841;DHT22;28491;46.898;7.660;2023-08-31T05:03:13;13.20;1.00
42841;DHT22;28491;46.898;7.660;2023-08-31T05:05:38;13.20;1.00
42841;DHT22;28491;46.898;7.660;2023-08-31T05:08:04;13.20;17.10
42841;DHT22;28491;46.898;7.660;2023-08-31T05:10:30;13.20;13.90
42841;DHT22;28491;46.898;7.660;2023-08-31T05:12:55;13.20;7.00
42841;DHT22;28491;46.898;7.660;2023-08-31T05:15:21;13.30;6.80
42841;DHT22;28491;46.898;7.660;2023-08-31T05:17:48;13.20;5.00
42841;DHT22;28491;46.898;7.660;2023-08-31T05:20:13;13.20;5.00
42841;DHT22;28491;46.898;7.660;2023-08-31T05:22:39;13.10;13.40
42841;DHT22;28491;46.898;7.660;2023-08-31T05:25:05;13.00;39.10
42841;DHT22;28491;46.898;7.660;2023-08-31T05:27:31;13.10;48.30
42841;DHT22;28491;46.898;7.660;2023-08-31T05:29:56;13.10;61.40
42841;DHT22;28491;46.898;7.660;2023-08-31T05:32:22;13.10;62.40
42841;DHT22;28491;46.898;7.660;2023-08-31T05:34:47;13.10;63.40
42841;DHT22;28491;46.898;7.660;2023-08-31T05:37:13;13.10;63.90
42841;DHT22;28491;46.898;7.660;2023-08-31T05:39:39;13.30;63.00
42841;DHT22;28491;46.898;7.660;2023-08-31T05:42:05;13.30;60.30
42841;DHT22;28491;46.898;7.660;2023-08-31T05:44:30;13.30;60.90
42841;DHT22;28491;46.898;7.660;2023-08-31T05:46:56;13.40;61.80
42841;DHT22;28491;46.898;7.660;2023-08-31T05:49:21;13.40;62.80
42841;DHT22;28491;46.898;7.660;2023-08-31T05:51:47;13.30;64.70
42841;DHT22;28491;46.898;7.660;2023-08-31T05:54:13;13.30;64.70
42841;DHT22;28491;46.898;7.660;2023-08-31T05:56:39;13.30;65.50
42841;DHT22;28491;46.898;7.660;2023-08-31T05:59:06;13.40;65.00
42841;DHT22;28491;46.898;7.660;2023-08-31T06:01:32;13.40;63.70
42841;DHT22;28491;46.898;7.660;2023-08-31T06:03:58;13.40;63.70
42841;DHT22;28491;46.898;7.660;2023-08-31T06:06:23;13.40;63.30
42841;DHT22;28491;46.898;7.660;2023-08-31T06:08:49;13.50;64.20
42841;DHT22;28491;46.898;7.660;2023-08-31T06:11:15;13.50;64.20
42841;DHT22;28491;46.898;7.660;2023-08-31T06:13:41;13.50;64.70
42841;DHT22;28491;46.898;7.660;2023-08-31T06:16:06;13.50;65.50
42841;DHT22;28491;46.898;7.660;2023-08-31T06:18:32;13.50;63.30
42841;DHT22;28491;46.898;7.660;2023-08-31T06:20:58;13.60;61.70
42841;DHT22;28491;46.898;7.660;2023-08-31T06:23:24;13.60;62.40
42841;DHT22;28491;46.898;7.660;2023-08-31T06:25:49;13.60;63.40
42841;DHT22;28491;46.898;7.660;2023-08-31T06:28:15;13.70;62.80
42841;DHT22;28491;46.898;7.660;2023-08-31T06:30:42;13.70;62.30
42841;DHT22;28491;46.898;7.660;2023-08-31T06:33:12;13.70;61.30
42841;DHT22;28491;46.898;7.660;2023-08-31T06:35:39;13.80;57.90
42841;DHT22;28491;46.898;7.660;2023-08-31T06:38:04;13.80;42.50
42841;DHT22;28491;46.898;7.660;2023-08-31T06:40:32;13.90;52.20
42841;DHT22;28491;46.898;7.660;2023-08-31T06:42:58;13.90;61.10
42841;DHT22;28491;46.898;7.660;2023-08-31T06:45:24;13.80;59.80
42841;DHT22;28491;46.898;7.660;2023-08-31T06:47:50;13.90;61.30
42841;DHT22;28491;46.898;7.660;2023-08-31T06:50:16;14.00;60.40
42841;DHT22;28491;46.898;7.660;2023-08-31T06:52:41;14.00;54.30
42841;DHT22;28491;46.898;7.660;2023-08-31T06:55:08;14.00;61.40
42841;DHT22;28491;46.898;7.660;2023-08-31T06:57:33;14.00;54.10
42841;DHT22;28491;46.898;7.660;2023-08-31T06:59:59;14.10;43.90
42841;DHT22;28491;46.898;7.660;2023-08-31T07:02:28;14.10;33.80
42841;DHT22;28491;46.898;7.660;2023-08-31T07:04:54;14.20;29.70
42841;DHT22;28491;46.898;7.660;2023-08-31T07:07:19;14.20;28.20
42841;DHT22;28491;46.898;7.660;2023-08-31T07:09:46;14.30;23.50
42841;DHT22;28491;46.898;7.660;2023-08-31T07:12:12;14.30;26.60
42841;DHT22;28491;46.898;7.660;2023-08-31T07:14:37;14.30;20.40
42841;DHT22;28491;46.898;7.660;2023-08-31T07:17:03;14.30;1.00
42841;DHT22;28491;46.898;7.660;2023-08-31T07:19:29;14.40;1.00
42841;DHT22;28491;46.898;7.660;2023-08-31T07:21:54;14.30;1.00
42841;DHT22;28491;46.898;7.660;2023-08-31T07:24:20;14.50;1.00
42841;DHT22;28491;46.898;7.660;2023-08-31T07:26:47;14.50;1.00
42841;DHT22;28491;46.898;7.660;2023-08-31T07:29:12;14.50;1.00
42841;DHT22;28491;46.898;7.660;2023-08-31T07:31:38;14.50;1.00
42841;DHT22;28491;46.898;7.660;2023-08-31T07:34:03;14.50;1.00
42841;DHT22;28491;46.898;7.660;2023-08-31T07:36:29;14.60;1.00
42841;DHT22;28491;46.898;7.660;2023-08-31T07:39:22;14.60;1.00
42841;DHT22;28491;46.898;7.660;2023-08-31T07:41:48;14.60;1.00
42841;DHT22;28491;46.898;7.660;2023-08-31T07:44:38;14.60;1.00
42841;DHT22;28491;46.898;7.660;2023-08-31T07:47:11;14.70;1.00
42841;DHT22;28491;46.898;7.660;2023-08-31T07:50:07;14.80;1.00
42841;DHT22;28491;46.898;7.660;2023-08-31T07:52:35;14.80;1.00
42841;DHT22;28491;46.898;7.660;2023-08-31T07:55:01;14.90;1.00
42841;DHT22;28491;46.898;7.660;2023-08-31T07:57:27;15.00;1.00
42841;DHT22;28491;46.898;7.660;2023-08-31T07:59:57;15.00;1.00
42841;DHT22;28491;46.898;7.660;2023-08-31T08:02:30;15.10;1.00
42841;DHT22;28491;46.898;7.660;2023-08-31T08:05:09;15.20;1.00
42841;DHT22;28491;46.898;7.660;2023-08-31T08:07:35;15.30;1.00
42841;DHT22;28491;46.898;7.660;2023-08-31T08:10:00;15.30;99.90
42841;DHT22;28491;46.898;7.660;2023-08-31T08:12:26;15.30;99.90
42841;DHT22;28491;46.898;7.660;2023-08-31T08:14:51;15.30;1.00
42841;DHT22;28491;46.898;7.660;2023-08-31T08:17:17;15.20;1.00
42841;DHT22;28491;46.898;7.660;2023-08-31T08:19:42;15.20;1.00
42841;DHT22;28491;46.898;7.660;2023-08-31T08:22:08;15.20;1.00
42841;DHT22;28491;46.898;7.660;2023-08-31T08:24:33;15.20;1.00
42841;DHT22;28491;46.898;7.660;2023-08-31T08:27:02;15.30;1.00
42841;DHT22;28491;46.898;7.660;2023-08-31T08:29:37;15.30;1.00
42841;DHT22;28491;46.898;7.660;2023-08-31T08:32:03;15.30;99.90
42841;DHT22;28491;46.898;7.660;2023-08-31T08:34:29;15.30;1.00
42841;DHT22;28491;46.898;7.660;2023-08-31T08:36:54;15.30;1.00
42841;DHT22;28491;46.898;7.660;2023-08-31T08:39:20;15.40;1.00
42841;DHT22;28491;46.898;7.660;2023-08-31T08:41:46;15.40;99.90
42841;DHT22;28491;46.898;7.660;2023-08-31T08:44:16;15.40;99.90
42841;DHT22;28491;46.898;7.660;2023-08-31T08:46:43;15.40;99.90
42841;DHT22;28491;46.898;7.660;2023-08-31T08:49:10;15.40;98.20
42841;DHT22;28491;46.898;7.660;2023-08-31T08:51:38;15.40;99.10
42841;DHT22;28491;46.898;7.660;2023-08-31T08:54:06;15.50;99.90
42841;DHT22;28491;46.898;7.660;2023-08-31T08:56:32;15.50;98.00
42841;DHT22;28491;46.898;7.660;2023-08-31T08:59:00;15.60;93.90
42841;DHT22;28491;46.898;7.660;2023-08-31T09:01:26;15.50;93.60
42841;DHT22;28491;46.898;7.660;2023-08-31T09:03:54;15.60;97.80
42841;DHT22;28491;46.898;7.660;2023-08-31T09:06:20;15.70;87.50
42841;DHT22;28491;46.898;7.660;2023-08-31T09:08:53;15.70;90.30
42841;DHT22;28491;46.898;7.660;2023-08-31T09:11:29;15.70;85.20
42841;DHT22;28491;46.898;7.660;2023-08-31T09:13:59;15.70;85.40
42841;DHT22;28491;46.898;7.660;2023-08-31T09:16:31;15.70;91.40
42841;DHT22;28491;46.898;7.660;2023-08-31T09:19:20;15.70;90.60
42841;DHT22;28491;46.898;7.660;2023-08-31T09:21:52;15.70;90.40
42841;DHT22;28491;46.898;7.660;2023-08-31T09:24:18;15.70;86.30
42841;DHT22;28491;46.898;7.660;2023-08-31T09:26:47;15.70;91.60
42841;DHT22;28491;46.898;7.660;2023-08-31T09:29:14;15.70;85.30
42841;DHT22;28491;46.898;7.660;2023-08-31T09:31:43;15.80;87.10
42841;DHT22;28491;46.898;7.660;2023-08-31T09:34:09;15.80;91.20
42841;DHT22;28491;46.898;7.660;2023-08-31T09:36:39;15.80;93.80
42841;DHT22;28491;46.898;7.660;2023-08-31T09:39:08;15.90;93.60
42841;DHT22;28491;46.898;7.660;2023-08-31T09:41:54;16.00;90.80
42841;DHT22;28491;46.898;7.660;2023-08-31T09:44:20;15.90;81.50
42841;DHT22;28491;46.898;7.660;2023-08-31T09:46:47;15.90;86.60
42841;DHT22;28491;46.898;7.660;2023-08-31T09:49:16;15.90;90.20
42841;DHT22;28491;46.898;7.660;2023-08-31T09:51:46;16.00;89.40
42841;DHT22;28491;46.898;7.660;2023-08-31T09:54:14;16.00;85.20
42841;DHT22;28491;46.898;7.660;2023-08-31T09:56:42;16.10;86.70
42841;DHT22;28491;46.898;7.660;2023-08-31T09:59:18;16.10;76.10
42841;DHT22;28491;46.898;7.660;2023-08-31T10:01:47;16.10;73.80
42841;DHT22;28491;46.898;7.660;2023-08-31T10:04:13;16.00;69.00
42841;DHT22;28491;46.898;7.660;2023-08-31T10:06:42;16.00;53.60
42841;DHT22;28491;46.898;7.660;2023-08-31T10:25:16;16.20;62.60
42841;DHT22;28491;46.898;7.660;2023-08-31T10:27:45;16.30;66.60
42841;DHT22;28491;46.898;7.660;2023-08-31T10:35:45;16.30;1.00
42841;DHT22;28491;46.898;7.660;2023-08-31T10:38:24;16.30;1.00
42841;DHT22;28491;46.898;7.660;2023-08-31T10:46:18;16.40;1.00
42841;DHT22;28491;46.898;7.660;2023-08-31T10:48:51;16.40;1.00
42841;DHT22;28491;46.898;7.660;2023-08-31T10:51:17;16.50;1.00
42841;DHT22;28491;46.898;7.660;2023-08-31T10:53:45;16.50;1.00
42841;DHT22;28491;46.898;7.660;2023-08-31T10:56:11;16.50;1.00
42841;DHT22;28491;46.898;7.660;2023-08-31T10:58:36;16.50;1.00
42841;DHT22;28491;46.898;7.660;2023-08-31T11:01:02;16.50;1.00
42841;DHT22;28491;46.898;7.660;2023-08-31T11:03:57;16.60;1.00
42841;DHT22;28491;46.898;7.660;2023-08-31T11:06:22;16.50;52.10
42841;DHT22;28491;46.898;7.660;2023-08-31T11:08:50;16.70;49.90
42841;DHT22;28491;46.898;7.660;2023-08-31T11:11:19;16.60;1.00
42841;DHT22;28491;46.898;7.660;2023-08-31T11:13:45;16.60;1.00
42841;DHT22;28491;46.898;7.660;2023-08-31T11:16:10;16.70;1.00
42841;DHT22;28491;46.898;7.660;2023-08-31T11:18:46;16.70;1.00
42841;DHT22;28491;46.898;7.660;2023-08-31T11:21:11;16.70;1.00
42841;DHT22;28491;46.898;7.660;2023-08-31T11:23:38;16.70;99.90
42841;DHT22;28491;46.898;7.660;2023-08-31T11:26:04;16.70;99.20
42841;DHT22;28491;46.898;7.660;2023-08-31T11:28:33;16.70;1.00
42841;DHT22;28491;46.898;7.660;2023-08-31T11:30:59;16.80;1.00
42841;DHT22;28491;46.898;7.660;2023-08-31T11:33:31;16.80;1.00
42841;DHT22;28491;46.898;7.660;2023-08-31T11:35:58;16.80;1.00
42841;DHT22;28491;46.898;7.660;2023-08-31T11:38:24;16.80;1.00
42841;DHT22;28491;46.898;7.660;2023-08-31T11:40:51;16.80;1.00
42841;DHT22;28491;46.898;7.660;2023-08-31T11:43:21;16.80;99.90
42841;DHT22;28491;46.898;7.660;2023-08-31T11:45:47;16.80;1.00
42841;DHT22;28491;46.898;7.660;2023-08-31T11:48:12;16.80;1.00
42841;DHT22;28491;46.898;7.660;2023-08-31T11:50:38;16.80;1.00
42841;DHT22;28491;46.898;7.660;2023-08-31T11:53:05;17.00;1.00
42841;DHT22;28491;46.898;7.660;2023-08-31T11:55:33;16.90;1.00
42841;DHT22;28491;46.898;7.660;2023-08-31T11:57:58;16.90;1.00
42841;DHT22;28491;46.898;7.660;2023-08-31T12:00:24;16.90;1.00
42841;DHT22;28491;46.898;7.660;2023-08-31T12:02:57;16.90;1.00
42841;DHT22;28491;46.898;7.660;2023-08-31T12:05:23;17.00;1.00
42841;DHT22;28491;46.898;7.660;2023-08-31T12:07:49;17.00;1.00
42841;DHT22;28491;46.898;7.660;2023-08-31T12:10:16;17.00;95.90
42841;DHT22;28491;46.898;7.660;2023-08-31T12:12:41;17.10;96.80
42841;DHT22;28491;46.898;7.660;2023-08-31T12:15:07;17.10;93.30
42841;DHT22;28491;46.898;7.660;2023-08-31T12:17:37;17.10;99.90
42841;DHT22;28491;46.898;7.660;2023-08-31T12:20:05;17.30;96.80
42841;DHT22;28491;46.898;7.660;2023-08-31T12:22:31;17.20;99.90
42841;DHT22;28491;46.898;7.660;2023-08-31T12:24:57;17.20;99.90
42841;DHT22;28491;46.898;7.660;2023-08-31T12:27:22;17.30;1.00
42841;DHT22;28491;46.898;7.660;2023-08-31T12:29:48;17.30;1.00
42841;DHT22;28491;46.898;7.660;2023-08-31T12:32:15;17.30;1.00
42841;DHT22;28491;46.898;7.660;2023-08-31T12:34:40;17.30;97.10
42841;DHT22;28491;46.898;7.660;2023-08-31T12:37:06;17.30;99.20
42841;DHT22;28491;46.898;7.660;2023-08-31T12:39:32;17.30;92.20
42841;DHT22;28491;46.898;7.660;2023-08-31T12:41:58;17.30;79.90
42841;DHT22;28491;46.898;7.660;2023-08-31T12:44:25;17.30;67.00
42841;DHT22;28491;46.898;7.660;2023-08-31T12:46:51;17.40;69.10
42841;DHT22;28491;46.898;7.660;2023-08-31T12:49:18;17.40;77.00
42841;DHT22;28491;46.898;7.660;2023-08-31T12:51:45;17.50;91.30
42841;DHT22;28491;46.898;7.660;2023-08-31T12:54:11;17.50;73.70
42841;DHT22;28491;46.898;7.660;2023-08-31T12:56:37;17.60;54.40
42841;DHT22;28491;46.898;7.660;2023-08-31T12:59:03;17.60;64.20
42841;DHT22;28491;46.898;7.660;2023-08-31T13:01:31;17.60;80.40
42841;DHT22;28491;46.898;7.660;2023-08-31T13:03:58;17.70;65.60
42841;DHT22;28491;46.898;7.660;2023-08-31T13:06:26;17.50;67.00
42841;DHT22;28491;46.898;7.660;2023-08-31T13:08:52;17.60;74.60
42841;DHT22;28491;46.898;7.660;2023-08-31T13:11:17;17.50;60.40
42841;DHT22;28491;46.898;7.660;2023-08-31T13:13:48;17.60;37.60
42841;DHT22;28491;46.898;7.660;2023-08-31T13:16:14;17.60;5.30
42841;DHT22;28491;46.898;7.660;2023-08-31T13:18:39;17.60;10.10
42841;DHT22;28491;46.898;7.660;2023-08-31T13:21:05;17.60;30.80
42841;DHT22;28491;46.898;7.660;2023-08-31T13:23:31;17.60;1.00
42841;DHT22;28491;46.898;7.660;2023-08-31T13:25:57;17.60;12.60
42841;DHT22;28491;46.898;7.660;2023-08-31T13:28:22;17.70;57.60
42841;DHT22;28491;46.898;7.660;2023-08-31T13:30:48;17.80;1.00
42841;DHT22;28491;46.898;7.660;2023-08-31T13:33:14;17.80;1.00
42841;DHT22;28491;46.898;7.660;2023-08-31T13:35:39;17.80;25.20
42841;DHT22;28491;46.898;7.660;2023-08-31T13:38:05;17.80;22.00
42841;DHT22;28491;46.898;7.660;2023-08-31T13:40:33;17.80;21.70
42841;DHT22;28491;46.898;7.660;2023-08-31T13:42:59;17.80;1.00
42841;DHT22;28491;46.898;7.660;2023-08-31T13:45:34;17.70;1.00
42841;DHT22;28491;46.898;7.660;2023-08-31T13:48:02;17.80;1.00
42841;DHT22;28491;46.898;7.660;2023-08-31T13:50:30;17.80;1.00
42841;DHT22;28491;46.898;7.660;2023-08-31T13:52:56;17.80;1.00
42841;DHT22;28491;46.898;7.660;2023-08-31T13:55:22;17.90;64.10
42841;DHT22;28491;46.898;7.660;2023-08-31T13:57:48;17.80;10.00
42841;DHT22;28491;46.898;7.660;2023-08-31T14:00:14;17.90;1.00
42841;DHT22;28491;46.898;7.660;2023-08-31T14:02:41;17.90;1.00
42841;DHT22;28491;46.898;7.660;2023-08-31T14:05:07;18.00;24.50
42841;DHT22;28491;46.898;7.660;2023-08-31T14:07:34;18.00;1.00
42841;DHT22;28491;46.898;7.660;2023-08-31T14:10:00;18.00;5.20
42841;DHT22;28491;46.898;7.660;2023-08-31T14:12:25;18.00;59.00
42841;DHT22;28491;46.898;7.660;2023-08-31T14:14:52;18.10;1.00
42841;DHT22;28491;46.898;7.660;2023-08-31T14:17:18;18.10;1.00
42841;DHT22;28491;46.898;7.660;2023-08-31T14:19:44;18.10;1.00
42841;DHT22;28491;46.898;7.660;2023-08-31T14:22:10;18.10;65.00
42841;DHT22;28491;46.898;7.660;2023-08-31T14:24:36;18.10;67.60
42841;DHT22;28491;46.898;7.660;2023-08-31T14:27:02;18.10;88.20
42841;DHT22;28491;46.898;7.660;2023-08-31T14:29:28;18.10;89.90
42841;DHT22;28491;46.898;7.660;2023-08-31T14:31:54;18.10;85.20
42841;DHT22;28491;46.898;7.660;2023-08-31T14:34:21;18.10;80.40
42841;DHT22;28491;46.898;7.660;2023-08-31T14:36:47;18.10;80.70
42841;DHT22;28491;46.898;7.660;2023-08-31T14:39:12;18.20;70.00
42841;DHT22;28491;46.898;7.660;2023-08-31T14:41:38;18.20;71.30
42841;DHT22;28491;46.898;7.660;2023-08-31T14:44:03;18.30;81.10
42841;DHT22;28491;46.898;7.660;2023-08-31T14:46:29;18.30;67.50
42841;DHT22;28491;46.898;7.660;2023-08-31T14:48:55;18.20;1.00
42841;DHT22;28491;46.898;7.660;2023-08-31T14:51:20;18.20;11.60
42841;DHT22;28491;46.898;7.660;2023-08-31T14:53:46;18.30;7.00
42841;DHT22;28491;46.898;7.660;2023-08-31T14:56:11;18.40;42.00
42841;DHT22;28491;46.898;7.660;2023-08-31T14:58:37;18.40;14.80
42841;DHT22;28491;46.898;7.660;2023-08-31T15:01:02;18.50;62.20
42841;DHT22;28491;46.898;7.660;2023-08-31T15:03:28;18.50;58.80
42841;DHT22;28491;46.898;7.660;2023-08-31T15:05:54;18.60;16.10
42841;DHT22;28491;46.898;7.660;2023-08-31T15:08:22;18.70;1.00
42841;DHT22;28491;46.898;7.660;2023-08-31T15:11:00;18.60;1.00
42841;DHT22;28491;46.898;7.660;2023-08-31T15:13:28;18.60;11.00
42841;DHT22;28491;46.898;7.660;2023-08-31T15:15:53;18.60;1.00
42841;DHT22;28491;46.898;7.660;2023-08-31T15:18:19;18.60;1.00
42841;DHT22;28491;46.898;7.660;2023-08-31T15:20:44;18.50;1.00
42841;DHT22;28491;46.898;7.660;2023-08-31T15:23:12;18.50;2.00
42841;DHT22;28491;46.898;7.660;2023-08-31T15:25:38;18.50;14.60
42841;DHT22;28491;46.898;7.660;2023-08-31T15:28:08;18.40;64.10
42841;DHT22;28491;46.898;7.660;2023-08-31T15:30:57;18.30;11.60
42841;DHT22;28491;46.898;7.660;2023-08-31T15:33:25;18.30;64.70
42841;DHT22;28491;46.898;7.660;2023-08-31T15:35:51;18.30;87.10
42841;DHT22;28491;46.898;7.660;2023-08-31T15:38:19;18.20;80.70
42841;DHT22;28491;46.898;7.660;2023-08-31T15:40:48;18.20;63.60
42841;DHT22;28491;46.898;7.660;2023-08-31T15:43:13;18.20;27.70
42841;DHT22;28491;46.898;7.660;2023-08-31T15:45:44;18.30;76.00
42841;DHT22;28491;46.898;7.660;2023-08-31T15:48:11;18.30;67.00
42841;DHT22;28491;46.898;7.660;2023-08-31T15:50:37;18.30;1.00
42841;DHT22;28491;46.898;7.660;2023-08-31T15:53:05;18.50;1.00
42841;DHT22;28491;46.898;7.660;2023-08-31T15:55:33;18.60;1.00
42841;DHT22;28491;46.898;7.660;2023-08-31T15:57:59;18.70;1.00
42841;DHT22;28491;46.898;7.660;2023-08-31T16:00:24;18.80;1.00
42841;DHT22;28491;46.898;7.660;2023-08-31T16:02:50;18.80;1.00
42841;DHT22;28491;46.898;7.660;2023-08-31T16:05:16;18.90;1.00
42841;DHT22;28491;46.898;7.660;2023-08-31T16:07:41;19.00;1.00
42841;DHT22;28491;46.898;7.660;2023-08-31T16:10:07;19.00;1.00